createdAt,value
2024-02-19T00:01:30.627Z,1.55
2024-02-19T00:04:00.672Z,1.00
2024-02-19T00:06:28.475Z,1.38
2024-02-19T00:08:56.821Z,1.17
2024-02-19T00:11:24.630Z,2.33
2024-02-19T00:13:53.021Z,2.50
2024-02-19T00:16:21.430Z,1.13
2024-02-19T00:18:50.641Z,1.25
2024-02-19T00:21:19.882Z,1.58
2024-02-19T00:23:48.303Z,1.67
2024-02-19T00:26:16.097Z,0.88
2024-02-19T00:28:44.592Z,1.08
2024-02-19T00:31:13.337Z,2.17
2024-02-19T00:33:42.011Z,0.57
2024-02-19T00:36:10.552Z,1.23
2024-02-19T00:38:39.942Z,1.13
2024-02-19T00:41:07.743Z,1.20
2024-02-19T00:43:36.167Z,1.23
2024-02-19T00:46:04.448Z,2.15
2024-02-19T00:48:32.569Z,1.08
2024-02-19T00:51:00.359Z,1.50
2024-02-19T00:53:28.728Z,2.20
2024-02-19T00:55:57.882Z,0.20
2024-02-19T00:58:26.255Z,0.68
2024-02-19T01:00:56.747Z,0.30
2024-02-19T01:03:25.355Z,0.25
2024-02-19T01:05:53.163Z,3.60
2024-02-19T01:08:21.670Z,0.60
2024-02-19T01:10:50.505Z,1.63
2024-02-19T01:13:20.366Z,1.05
2024-02-19T01:15:48.113Z,0.70
2024-02-19T01:18:20.535Z,2.95
2024-02-19T01:20:48.444Z,1.38
2024-02-19T01:23:18.068Z,0.63
2024-02-19T01:25:45.946Z,0.50
2024-02-19T01:28:14.199Z,0.20
2024-02-19T01:30:43.521Z,0.35
2024-02-19T01:33:11.914Z,0.90
2024-02-19T01:35:40.393Z,0.20
2024-02-19T01:38:09.174Z,0.20
2024-02-19T01:40:36.894Z,1.65
2024-02-19T01:43:07.078Z,0.00
2024-02-19T01:45:35.712Z,0.00
2024-02-19T01:48:05.626Z,0.00
2024-02-19T01:50:34.514Z,0.00
2024-02-19T01:53:04.784Z,0.00
2024-02-19T01:55:34.825Z,0.05
2024-02-19T01:58:03.990Z,1.10
2024-02-19T02:00:39.323Z,0.00
2024-02-19T02:03:12.318Z,0.00
2024-02-19T02:05:40.172Z,0.00
2024-02-19T02:08:08.865Z,0.00
2024-02-19T02:10:36.616Z,0.00
2024-02-19T02:13:05.028Z,0.17
2024-02-19T02:15:32.922Z,0.00
2024-02-19T02:18:01.071Z,0.10
2024-02-19T02:20:32.451Z,0.68
2024-02-19T02:23:01.098Z,0.00
2024-02-19T02:25:28.837Z,0.00
2024-02-19T02:27:58.966Z,0.00
2024-02-19T02:30:26.768Z,0.00
2024-02-19T02:32:57.232Z,0.00
2024-02-19T02:35:25.795Z,0.10
2024-02-19T02:37:53.860Z,0.00
2024-02-19T02:40:21.802Z,0.00
2024-02-19T02:42:50.664Z,0.43
2024-02-19T02:45:19.934Z,0.00
2024-02-19T02:47:48.281Z,0.00
2024-02-19T02:50:16.307Z,0.00
2024-02-19T02:52:44.257Z,0.15
2024-02-19T02:55:13.247Z,0.28
2024-02-19T02:57:41.095Z,0.00
2024-02-19T03:00:11.550Z,0.10
2024-02-19T03:02:40.694Z,0.00
2024-02-19T03:05:09.207Z,0.10
2024-02-19T03:07:37.789Z,0.00
2024-02-19T03:10:06.807Z,0.77
2024-02-19T03:12:35.246Z,0.00
2024-02-19T03:15:03.053Z,0.32
2024-02-19T03:17:31.202Z,0.10
2024-02-19T03:20:00.335Z,0.00
2024-02-19T03:22:28.723Z,0.20
2024-02-19T03:24:56.518Z,0.00
2024-02-19T03:27:24.903Z,0.52
2024-02-19T03:29:52.936Z,0.25
2024-02-19T03:32:20.729Z,0.00
2024-02-19T03:34:49.216Z,2.65
2024-02-19T03:37:18.909Z,0.17
2024-02-19T03:39:47.346Z,0.10
2024-02-19T03:42:15.065Z,0.47
2024-02-19T03:44:43.174Z,1.02
2024-02-19T03:47:11.346Z,0.40
2024-02-19T03:49:39.986Z,0.00
2024-02-19T03:52:08.189Z,1.75
2024-02-19T03:54:38.015Z,0.17
2024-02-19T03:57:06.817Z,0.00
2024-02-19T03:59:34.607Z,0.20
2024-02-19T04:02:02.575Z,0.10
2024-02-19T04:04:30.940Z,0.00
2024-02-19T04:06:59.254Z,1.35
2024-02-19T04:09:27.062Z,0.00
2024-02-19T04:11:56.855Z,0.03
2024-02-19T04:14:25.980Z,0.63
2024-02-19T04:16:54.370Z,0.05
2024-02-19T04:19:24.640Z,0.00
2024-02-19T04:21:53.141Z,0.60
2024-02-19T04:24:21.514Z,0.38
2024-02-19T04:26:49.839Z,0.00
2024-02-19T04:29:18.923Z,2.30
2024-02-19T04:31:47.280Z,0.05
2024-02-19T04:34:15.267Z,1.25
2024-02-19T04:36:43.556Z,0.68
2024-02-19T04:39:13.236Z,0.88
2024-02-19T04:41:40.975Z,0.77
2024-02-19T04:44:09.334Z,0.17
2024-02-19T04:46:40.037Z,0.10
2024-02-19T04:49:07.883Z,0.00
2024-02-19T04:51:36.346Z,1.45
2024-02-19T04:54:05.361Z,0.00
2024-02-19T04:56:33.483Z,0.00
2024-02-19T04:59:02.063Z,1.98
2024-02-19T05:01:31.940Z,0.43
2024-02-19T05:04:01.568Z,0.43
2024-02-19T05:06:30.356Z,1.40
2024-02-19T05:08:58.465Z,0.30
2024-02-19T05:11:26.336Z,0.95
2024-02-19T05:13:54.422Z,0.00
2024-02-19T05:16:22.234Z,0.30
2024-02-19T05:18:51.209Z,2.05
2024-02-19T05:21:20.327Z,1.75
2024-02-19T05:23:48.657Z,0.52
2024-02-19T05:26:25.570Z,1.05
2024-02-19T05:28:54.047Z,1.00
2024-02-19T05:31:39.726Z,0.03
2024-02-19T05:34:09.783Z,0.10
2024-02-19T05:36:39.122Z,0.60
2024-02-19T05:39:12.269Z,0.00
2024-02-19T05:41:40.456Z,0.00
2024-02-19T05:44:09.524Z,3.28
2024-02-19T05:46:37.553Z,0.00
2024-02-19T05:49:05.820Z,0.15
2024-02-19T05:51:33.654Z,0.10
2024-02-19T05:54:03.417Z,0.10
2024-02-19T05:56:31.199Z,2.53
2024-02-19T05:58:59.580Z,0.10
2024-02-19T06:01:27.483Z,0.52
2024-02-19T06:03:55.945Z,0.00
2024-02-19T06:06:23.740Z,0.65
2024-02-19T06:08:52.102Z,0.90
2024-02-19T06:11:22.790Z,0.55
2024-02-19T06:13:51.620Z,0.85
2024-02-19T06:16:19.468Z,0.85
2024-02-19T06:18:48.259Z,0.00
2024-02-19T06:21:16.093Z,0.00
2024-02-19T06:23:44.402Z,1.08
2024-02-19T06:26:13.788Z,2.40
2024-02-19T06:28:43.513Z,0.00
2024-02-19T06:31:11.308Z,1.00
2024-02-19T06:33:40.428Z,0.63
2024-02-19T06:36:08.669Z,1.40
2024-02-19T06:38:36.707Z,1.15
2024-02-19T06:41:04.756Z,1.55
2024-02-19T06:43:33.230Z,1.65
2024-02-19T06:46:02.392Z,0.55
2024-02-19T06:48:30.913Z,1.55
2024-02-19T06:50:59.322Z,1.85
2024-02-19T06:53:27.097Z,1.15
2024-02-19T06:55:55.216Z,0.20
2024-02-19T06:58:23.844Z,0.20
2024-02-19T07:00:52.371Z,0.10
2024-02-19T07:03:21.857Z,0.95
2024-02-19T07:05:49.757Z,0.55
2024-02-19T07:08:17.531Z,0.30
2024-02-19T07:10:45.946Z,0.85
2024-02-19T07:13:13.961Z,0.10
2024-02-19T07:15:42.416Z,0.45
2024-02-19T07:18:11.982Z,0.35
2024-02-19T07:20:42.923Z,0.30
2024-02-19T07:23:10.684Z,0.00
2024-02-19T07:25:38.589Z,0.57
2024-02-19T07:28:06.653Z,0.00
2024-02-19T07:30:37.045Z,0.20
2024-02-19T07:33:05.320Z,0.08
2024-02-19T07:35:33.443Z,0.25
2024-02-19T07:38:02.526Z,0.65
2024-02-19T07:40:34.173Z,0.63
2024-02-19T07:43:03.696Z,0.22
2024-02-19T07:45:32.137Z,0.10
2024-02-19T07:48:01.424Z,0.40
2024-02-19T07:50:30.073Z,0.45
2024-02-19T07:52:57.839Z,0.55
2024-02-19T07:55:27.742Z,2.85
2024-02-19T07:57:55.911Z,0.05
2024-02-19T08:00:23.971Z,0.25
2024-02-19T08:02:51.848Z,1.63
2024-02-19T08:05:20.198Z,0.10
2024-02-19T08:07:48.235Z,0.60
2024-02-19T08:10:16.907Z,0.75
2024-02-19T08:12:46.937Z,0.85
2024-02-19T08:15:15.102Z,0.70
2024-02-19T08:17:42.984Z,2.03
2024-02-19T08:20:11.757Z,0.08
2024-02-19T08:22:39.494Z,0.22
2024-02-19T08:25:08.667Z,0.30
2024-02-19T08:27:36.400Z,4.30
2024-02-19T08:30:07.162Z,0.95
2024-02-19T08:32:34.977Z,0.10
2024-02-19T08:35:03.186Z,0.10
2024-02-19T08:37:31.097Z,4.30
2024-02-19T08:39:59.356Z,1.70
2024-02-19T08:42:27.199Z,1.33
2024-02-19T08:44:55.010Z,1.95
2024-02-19T08:47:24.338Z,1.77
2024-02-19T08:49:52.316Z,0.10
2024-02-19T08:52:20.138Z,0.90
2024-02-19T08:54:48.797Z,0.82
2024-02-19T08:57:17.470Z,0.10
2024-02-19T08:59:47.072Z,1.33
2024-02-19T09:02:15.546Z,1.65
2024-02-19T09:04:45.350Z,3.15
2024-02-19T09:07:14.735Z,1.23
2024-02-19T09:09:45.463Z,3.00
2024-02-19T09:12:13.956Z,2.97
2024-02-19T09:14:41.809Z,3.28
2024-02-19T09:17:09.637Z,0.20
2024-02-19T09:19:37.538Z,0.00
2024-02-19T09:22:08.691Z,0.50
2024-02-19T09:24:36.782Z,0.75
2024-02-19T09:27:04.911Z,3.10
2024-02-19T09:29:35.814Z,4.18
2024-02-19T09:32:04.117Z,0.45
2024-02-19T09:34:32.350Z,1.60
2024-02-19T09:37:01.631Z,2.00
2024-02-19T09:39:31.014Z,2.28
2024-02-19T09:41:58.894Z,1.85
2024-02-19T09:44:27.676Z,2.10
2024-02-19T09:47:02.626Z,1.95
2024-02-19T09:49:32.193Z,1.38
2024-02-19T09:52:03.232Z,6.50
2024-02-19T09:54:32.983Z,3.92
2024-02-19T09:57:02.028Z,1.60
2024-02-19T09:59:30.523Z,1.40
2024-02-19T10:01:58.346Z,3.13
2024-02-19T10:04:28.626Z,3.63
2024-02-19T10:07:01.949Z,1.80
2024-02-19T10:09:29.883Z,4.10
2024-02-19T10:11:59.433Z,2.78
2024-02-19T10:14:27.382Z,5.10
2024-02-19T10:16:56.096Z,3.80
2024-02-19T10:19:24.247Z,1.00
2024-02-19T10:21:52.093Z,3.55
2024-02-19T10:24:20.692Z,2.08
2024-02-19T10:26:49.249Z,3.22
2024-02-19T10:29:20.282Z,7.63
2024-02-19T10:31:48.208Z,4.57
2024-02-19T10:34:18.123Z,2.22
2024-02-19T10:36:46.580Z,5.43
2024-02-19T10:39:15.096Z,7.30
2024-02-19T10:41:44.124Z,4.30
2024-02-19T10:44:11.925Z,5.57
2024-02-19T10:46:41.499Z,7.38
2024-02-19T10:49:09.702Z,6.95
2024-02-19T10:51:40.548Z,1.65
2024-02-19T10:54:08.543Z,2.38
2024-02-19T10:56:38.151Z,3.30
2024-02-19T10:59:08.775Z,4.43
2024-02-19T11:01:46.079Z,5.65
2024-02-19T11:04:19.816Z,3.55
2024-02-19T11:06:48.578Z,3.35
2024-02-19T11:09:27.964Z,4.55
2024-02-19T11:11:59.406Z,3.58
2024-02-19T11:14:29.963Z,6.45
2024-02-19T11:16:59.328Z,3.85
2024-02-19T11:19:28.201Z,6.43
2024-02-19T11:22:07.192Z,2.75
2024-02-19T11:24:35.277Z,4.57
2024-02-19T11:27:06.230Z,3.75
2024-02-19T11:29:43.612Z,3.88
2024-02-19T11:32:21.024Z,6.93
2024-02-19T11:34:51.885Z,6.75
2024-02-19T11:37:20.889Z,3.50
2024-02-19T11:39:49.370Z,2.10
2024-02-19T11:42:18.063Z,4.35
2024-02-19T11:44:47.589Z,6.05
2024-02-19T11:47:17.467Z,2.55
2024-02-19T11:49:47.516Z,5.88
2024-02-19T11:52:16.545Z,3.08
2024-02-19T11:54:45.701Z,2.05
2024-02-19T11:57:15.200Z,3.00
2024-02-19T11:59:45.930Z,3.58
2024-02-19T12:02:13.896Z,8.68
2024-02-19T12:04:44.120Z,4.05
2024-02-19T12:07:12.624Z,4.32
2024-02-19T12:09:40.598Z,0.77
2024-02-19T12:12:08.402Z,1.00
2024-02-19T12:14:38.007Z,1.88
2024-02-19T12:17:07.029Z,4.13
2024-02-19T12:19:35.480Z,4.47
2024-02-19T12:22:05.498Z,4.68
2024-02-19T12:24:34.044Z,5.63
2024-02-19T12:27:02.558Z,3.45
2024-02-19T12:29:30.354Z,2.92
2024-02-19T12:31:58.718Z,6.35
2024-02-19T12:34:26.611Z,4.97
2024-02-19T12:36:54.959Z,3.25
2024-02-19T12:39:26.809Z,3.17
2024-02-19T12:41:54.717Z,2.53
2024-02-19T12:44:22.493Z,7.57
2024-02-19T12:46:51.065Z,4.70
2024-02-19T12:49:19.749Z,3.92
2024-02-19T12:51:49.905Z,2.95
2024-02-19T12:54:19.560Z,1.85
2024-02-19T12:56:49.386Z,4.22
2024-02-19T12:59:17.524Z,3.38
2024-02-19T13:01:45.607Z,5.20
2024-02-19T13:04:13.617Z,4.40
2024-02-19T13:06:41.815Z,4.97
2024-02-19T13:09:12.120Z,4.68
2024-02-19T13:11:40.279Z,6.80
2024-02-19T13:14:10.482Z,5.78
2024-02-19T13:16:40.039Z,1.85
2024-02-19T13:19:08.195Z,4.22
2024-02-19T13:21:36.710Z,3.67
2024-02-19T13:24:04.557Z,8.25
2024-02-19T13:26:33.397Z,3.35
2024-02-19T13:29:03.283Z,4.13
2024-02-19T13:31:33.210Z,6.07
2024-02-19T13:34:01.256Z,4.82
2024-02-19T13:36:29.108Z,2.75
2024-02-19T13:38:57.227Z,4.18
2024-02-19T13:41:25.709Z,5.95
2024-02-19T13:43:54.125Z,4.60
2024-02-19T13:46:22.296Z,2.60
2024-02-19T13:49:02.025Z,1.73
2024-02-19T13:51:30.093Z,4.88
2024-02-19T13:53:57.963Z,3.47
2024-02-19T13:56:26.945Z,1.50
2024-02-19T13:58:54.769Z,3.28
2024-02-19T14:01:22.702Z,4.00
2024-02-19T14:03:52.770Z,5.75
2024-02-19T14:06:20.983Z,5.82
2024-02-19T14:08:48.783Z,7.13
2024-02-19T14:11:16.593Z,7.28
2024-02-19T14:13:51.058Z,3.42
2024-02-19T14:16:23.182Z,4.47
2024-02-19T14:18:52.466Z,1.95
2024-02-19T14:21:20.333Z,3.67
2024-02-19T14:23:48.088Z,5.75
2024-02-19T14:26:16.220Z,4.78
2024-02-19T14:28:44.420Z,4.07
2024-02-19T14:31:12.376Z,3.47
2024-02-19T14:33:40.708Z,9.73
2024-02-19T14:36:10.278Z,1.25
2024-02-19T14:38:39.355Z,8.57
2024-02-19T14:41:07.317Z,3.45
2024-02-19T14:43:35.283Z,3.00
2024-02-19T14:46:05.879Z,1.77
2024-02-19T14:48:36.859Z,2.72
2024-02-19T14:51:06.797Z,1.50
2024-02-19T14:53:36.050Z,1.17
2024-02-19T14:56:04.184Z,3.15
2024-02-19T14:58:34.382Z,1.77
2024-02-19T15:01:02.640Z,5.75
2024-02-19T15:03:30.704Z,3.97
2024-02-19T15:05:58.743Z,5.78
2024-02-19T15:08:27.102Z,6.22
2024-02-19T15:10:58.697Z,3.15
2024-02-19T15:13:26.614Z,12.77
2024-02-19T15:15:54.443Z,3.53
2024-02-19T15:18:23.970Z,5.50
2024-02-19T15:20:53.539Z,5.20
2024-02-19T15:23:22.204Z,5.03
2024-02-19T15:25:50.148Z,1.02
2024-02-19T15:28:19.692Z,1.50
2024-02-19T15:30:50.982Z,3.92
2024-02-19T15:33:19.127Z,3.60
2024-02-19T15:35:46.879Z,4.32
2024-02-19T15:38:14.922Z,3.45
2024-02-19T15:40:44.939Z,2.95
2024-02-19T15:43:13.242Z,5.80
2024-02-19T15:45:44.734Z,5.18
2024-02-19T15:48:14.942Z,4.95
2024-02-19T15:50:42.852Z,7.60
2024-02-19T15:53:24.473Z,7.50
2024-02-19T15:56:00.562Z,7.35
2024-02-19T15:58:30.349Z,6.07
2024-02-19T16:00:59.678Z,4.05
2024-02-19T16:03:29.419Z,3.90
2024-02-19T16:06:00.923Z,5.35
2024-02-19T16:08:39.951Z,2.53
2024-02-19T16:11:09.305Z,2.78
2024-02-19T16:13:39.103Z,7.25
2024-02-19T16:16:11.448Z,4.75
2024-02-19T16:18:40.670Z,5.00
2024-02-19T16:21:08.568Z,3.03
2024-02-19T16:23:37.976Z,2.25
2024-02-19T16:26:06.842Z,4.82
2024-02-19T16:28:34.989Z,5.88
2024-02-19T16:31:04.251Z,4.03
2024-02-19T16:33:33.686Z,2.75
2024-02-19T16:36:05.816Z,1.85
2024-02-19T16:38:38.232Z,3.45
2024-02-19T16:41:06.963Z,7.72
2024-02-19T16:43:36.183Z,8.98
2024-02-19T16:46:05.271Z,4.38
2024-02-19T16:48:39.768Z,4.82
2024-02-19T16:51:08.182Z,4.07
2024-02-19T16:53:37.182Z,7.70
2024-02-19T16:56:05.550Z,4.28
2024-02-19T16:58:36.228Z,4.20
2024-02-19T17:01:06.181Z,5.50
2024-02-19T17:03:35.669Z,4.35
2024-02-19T17:06:04.534Z,4.13
2024-02-19T17:08:31.848Z,8.45
2024-02-19T17:10:59.856Z,4.65
2024-02-19T17:13:27.869Z,6.25
2024-02-19T17:15:56.131Z,3.33
2024-02-19T17:18:24.039Z,10.85
2024-02-19T17:20:53.316Z,0.98
2024-02-19T17:23:21.541Z,1.90
2024-02-19T17:25:49.322Z,5.30
2024-02-19T17:28:19.825Z,4.47
2024-02-19T17:30:48.063Z,7.28
2024-02-19T17:33:16.367Z,5.97
2024-02-19T17:35:45.887Z,4.35
2024-02-19T17:38:15.995Z,6.63
2024-02-19T17:40:45.250Z,4.22
2024-02-19T17:43:13.827Z,3.60
2024-02-19T17:45:42.395Z,1.35
2024-02-19T17:48:14.189Z,4.60
2024-02-19T17:50:43.464Z,4.43
2024-02-19T17:53:11.557Z,4.75
2024-02-19T17:55:41.971Z,6.07
2024-02-19T17:58:10.401Z,2.05
2024-02-19T18:00:41.942Z,4.30
2024-02-19T18:03:10.118Z,8.43
2024-02-19T18:05:38.050Z,11.00
2024-02-19T18:08:06.586Z,3.53
2024-02-19T18:10:34.548Z,7.07
2024-02-19T18:13:04.532Z,5.78
2024-02-19T18:15:32.442Z,3.00
2024-02-19T18:18:04.544Z,8.25
2024-02-19T18:20:33.818Z,7.80
2024-02-19T18:23:04.302Z,8.45
2024-02-19T18:25:32.253Z,7.35
2024-02-19T18:28:00.342Z,6.40
2024-02-19T18:30:29.497Z,5.93
2024-02-19T18:32:59.268Z,8.63
2024-02-19T18:35:27.294Z,7.65
2024-02-19T18:37:55.444Z,6.03
2024-02-19T18:40:23.670Z,12.27
2024-02-19T18:42:53.301Z,11.00
2024-02-19T18:45:21.148Z,10.82
2024-02-19T18:47:50.500Z,8.15
2024-02-19T18:50:19.202Z,11.02
2024-02-19T18:52:47.536Z,11.18
2024-02-19T18:55:15.920Z,8.93
2024-02-19T18:57:43.696Z,12.45
2024-02-19T19:00:11.965Z,9.88
2024-02-19T19:02:42.481Z,12.00
2024-02-19T19:05:14.149Z,7.45
2024-02-19T19:07:43.043Z,11.35
2024-02-19T19:10:11.377Z,12.00
2024-02-19T19:12:39.471Z,7.05
2024-02-19T19:15:08.847Z,9.98
2024-02-19T19:17:37.174Z,11.20
2024-02-19T19:20:10.166Z,9.90
2024-02-19T19:22:40.065Z,15.85
2024-02-19T19:25:08.704Z,17.42
2024-02-19T19:27:37.132Z,9.63
2024-02-19T19:30:05.784Z,7.80
2024-02-19T19:32:36.367Z,9.85
2024-02-19T19:35:04.797Z,11.65
2024-02-19T19:37:32.680Z,7.38
2024-02-19T19:40:06.781Z,11.25
2024-02-19T19:42:35.239Z,10.32
2024-02-19T19:45:03.019Z,8.23
2024-02-19T19:47:34.592Z,13.57
2024-02-19T19:50:02.987Z,6.93
2024-02-19T19:52:35.268Z,12.05
2024-02-19T19:55:05.403Z,8.30
2024-02-19T19:57:33.903Z,11.27
2024-02-19T20:00:01.710Z,8.63
2024-02-19T20:02:36.948Z,8.73
2024-02-19T20:05:05.367Z,14.07
2024-02-19T20:07:33.258Z,9.70
2024-02-19T20:10:04.312Z,13.95
2024-02-19T20:12:34.993Z,10.55
2024-02-19T20:15:03.541Z,14.35
2024-02-19T20:17:33.431Z,11.73
2024-02-19T20:20:02.412Z,14.98
2024-02-19T20:22:31.437Z,17.73
2024-02-19T20:24:59.364Z,17.80
2024-02-19T20:27:27.611Z,12.00
2024-02-19T20:29:56.858Z,14.32
2024-02-19T20:32:25.057Z,15.82
2024-02-19T20:34:53.390Z,12.40
2024-02-19T20:37:24.386Z,12.63
2024-02-19T20:39:52.526Z,15.77
2024-02-19T20:42:20.542Z,7.32
2024-02-19T20:44:48.375Z,12.98
2024-02-19T20:47:18.990Z,13.75
2024-02-19T20:49:47.929Z,12.43
2024-02-19T20:52:22.167Z,6.45
2024-02-19T20:54:55.277Z,9.20
2024-02-19T20:57:26.206Z,8.68
2024-02-19T20:59:54.163Z,11.02
2024-02-19T21:02:27.219Z,12.10
2024-02-19T21:04:55.062Z,4.32
2024-02-19T21:07:24.635Z,9.02
2024-02-19T21:09:52.557Z,8.15
2024-02-19T21:12:22.070Z,7.38
2024-02-19T21:14:50.228Z,12.77
2024-02-19T21:17:18.103Z,10.10
2024-02-19T21:19:47.639Z,8.95
2024-02-19T21:22:15.611Z,9.07
2024-02-19T21:24:44.800Z,5.88
2024-02-19T21:27:12.662Z,9.40
2024-02-19T21:29:41.340Z,7.38
2024-02-19T21:32:09.078Z,5.95
2024-02-19T21:34:38.554Z,7.03
2024-02-19T21:37:08.045Z,8.48
2024-02-19T21:39:36.182Z,6.72
2024-02-19T21:42:04.684Z,6.97
2024-02-19T21:44:33.257Z,6.78
2024-02-19T21:47:01.268Z,6.80
2024-02-19T21:49:29.963Z,8.90
2024-02-19T21:51:57.871Z,8.45
2024-02-19T21:54:27.359Z,7.07
2024-02-19T21:56:55.136Z,8.68
2024-02-19T21:59:23.184Z,6.32
2024-02-19T22:01:51.343Z,8.35
2024-02-19T22:04:19.717Z,8.27
2024-02-19T22:06:47.884Z,5.53
2024-02-19T22:09:16.046Z,7.80
2024-02-19T22:11:46.585Z,7.88
2024-02-19T22:14:15.520Z,7.05
2024-02-19T22:16:43.823Z,8.30
2024-02-19T22:19:12.075Z,4.55
2024-02-19T22:21:39.980Z,7.32
2024-02-19T22:24:08.081Z,7.70
2024-02-19T22:26:35.871Z,8.32
2024-02-19T22:29:05.051Z,7.97
2024-02-19T22:31:33.668Z,6.18
2024-02-19T22:34:01.566Z,8.70
2024-02-19T22:36:29.399Z,5.93
2024-02-19T22:38:57.133Z,4.63
2024-02-19T22:41:25.487Z,7.65
2024-02-19T22:43:53.214Z,5.47
2024-02-19T22:46:23.095Z,5.97
2024-02-19T22:48:50.889Z,8.35
2024-02-19T22:51:19.418Z,4.28
2024-02-19T22:53:47.152Z,5.43
2024-02-19T22:56:14.879Z,6.30
2024-02-19T22:58:42.703Z,8.02
2024-02-19T23:01:11.223Z,6.03
2024-02-19T23:03:40.456Z,3.55
2024-02-19T23:06:08.973Z,3.83
2024-02-19T23:08:36.735Z,4.53
2024-02-19T23:11:04.566Z,3.38
2024-02-19T23:13:32.453Z,3.13
2024-02-19T23:16:00.888Z,3.42
2024-02-19T23:18:28.692Z,4.18
2024-02-19T23:20:57.829Z,3.17
2024-02-19T23:23:25.659Z,3.13
2024-02-19T23:25:54.513Z,3.00
2024-02-19T23:28:23.000Z,2.78
2024-02-19T23:30:53.058Z,3.33
2024-02-19T23:33:20.995Z,2.70
2024-02-19T23:35:49.271Z,3.92
2024-02-19T23:38:20.402Z,2.30
2024-02-19T23:40:48.785Z,2.80
2024-02-19T23:43:16.742Z,4.22
2024-02-19T23:45:45.191Z,0.95
2024-02-19T23:48:13.039Z,0.55
2024-02-19T23:50:41.786Z,1.73
2024-02-19T23:53:09.640Z,2.58
2024-02-19T23:55:39.505Z,2.63
2024-02-19T23:58:07.297Z,3.50
